Time;durP1;ratioP1;P1;durP2;ratioP2;P2;SDS_P1;SDS_P2;PMS_P1;PMS_P2;Temp;Humidity;BMP_temperature;BMP_pressure;BME280_temperature;BME280_humidity;BME280_pressure;Samples;Min_cycle;Max_cycle;Signal;HPM_P1;HPM_P2
2021/06/14 00:00:00;;;;;;;8.32;6.43;;;22.80;54.70;;;;;;4961002;28;20481;-78
2021/06/14 00:02:26;;;;;;;8.40;6.25;;;22.80;53.90;;;;;;4961261;28;20083;-78
2021/06/14 00:04:52;;;;;;;8.68;6.57;;;22.70;52.90;;;;;;4961088;28;20557;-78
2021/06/14 00:07:19;;;;;;;9.63;6.80;;;22.70;53.90;;;;;;4952361;28;20020;-78
2021/06/14 00:09:45;;;;;;;9.27;6.32;;;22.60;52.50;;;;;;4956818;29;20375;-78
2021/06/14 00:12:13;;;;;;;9.48;6.80;;;22.60;52.20;;;;;;4960757;28;20023;-78
2021/06/14 00:14:39;;;;;;;8.23;6.63;;;22.50;51.80;;;;;;4960550;28;20607;-78
2021/06/14 00:17:06;;;;;;;9.85;6.53;;;22.50;51.90;;;;;;4960912;28;20031;-78
2021/06/14 00:19:31;;;;;;;10.65;6.43;;;22.50;51.80;;;;;;4960970;28;20031;-78
2021/06/14 00:21:57;;;;;;;11.98;6.55;;;22.50;51.90;;;;;;4954746;28;20078;-78
2021/06/14 00:24:24;;;;;;;9.23;6.03;;;22.40;51.90;;;;;;4957357;29;20505;-79
2021/06/14 00:26:49;;;;;;;7.93;5.93;;;22.40;51.90;;;;;;4960895;28;20463;-79
2021/06/14 00:29:15;;;;;;;9.18;5.75;;;22.40;51.80;;;;;;4960542;28;20027;-79
2021/06/14 00:31:41;;;;;;;7.75;5.60;;;22.30;52.10;;;;;;4960391;28;20121;-79
2021/06/14 00:34:08;;;;;;;9.32;6.18;;;22.30;51.90;;;;;;4960286;28;20035;-78
2021/06/14 00:36:34;;;;;;;9.50;5.93;;;22.30;52.10;;;;;;4960615;28;20020;-78
2021/06/14 00:39:00;;;;;;;8.40;5.65;;;22.20;51.80;;;;;;4960230;28;20090;-79
2021/06/14 00:41:26;;;;;;;10.93;6.20;;;22.20;51.80;;;;;;4960293;28;20082;-78
2021/06/14 00:43:51;;;;;;;7.70;6.00;;;22.20;51.80;;;;;;4960384;28;20031;-78
2021/06/14 00:46:17;;;;;;;8.80;6.38;;;22.20;51.90;;;;;;4960299;28;20019;-78
2021/06/14 00:48:43;;;;;;;8.57;6.03;;;22.10;51.90;;;;;;4960211;29;20031;-78
2021/06/14 00:51:10;;;;;;;10.02;6.72;;;22.10;52.00;;;;;;4960269;28;20032;-78
2021/06/14 00:53:42;;;;;;;9.75;6.30;;;22.00;52.10;;;;;;4960021;28;20375;-78
2021/06/14 00:56:10;;;;;;;9.32;6.32;;;22.00;52.20;;;;;;4960398;28;20159;-78
2021/06/14 00:58:37;;;;;;;8.95;6.47;;;22.00;52.10;;;;;;4960021;28;20047;-78
2021/06/14 01:01:04;;;;;;;8.10;6.25;;;21.90;52.30;;;;;;4960040;28;20082;-78
2021/06/14 01:03:30;;;;;;;8.85;6.47;;;21.90;52.50;;;;;;4959927;28;20031;-78
2021/06/14 01:05:58;;;;;;;7.95;6.15;;;21.80;52.40;;;;;;4960094;29;20516;-78
2021/06/14 01:08:26;;;;;;;11.18;6.35;;;21.80;52.40;;;;;;4945486;28;20047;-79
2021/06/14 01:10:52;;;;;;;10.80;6.72;;;21.80;52.60;;;;;;4959578;28;20031;-79
2021/06/14 01:13:55;;;;;;;13.18;7.95;;;21.70;56.40;;;;;;4954599;28;20023;-79
2021/06/14 01:16:39;;;;;;;9.45;6.63;;;21.70;56.40;;;;;;4943351;29;20102;-79
2021/06/14 01:19:10;;;;;;;9.85;6.75;;;21.60;54.30;;;;;;4959725;29;20027;-79
2021/06/14 01:22:00;;;;;;;11.20;7.57;;;21.60;54.30;;;;;;4945832;29;20128;-79
2021/06/14 01:25:18;;;;;;;11.48;7.95;;;21.60;56.60;;;;;;4955814;28;20031;-78
2021/06/14 01:27:56;;;;;;;10.88;6.72;;;21.60;54.40;;;;;;4955547;29;20046;-79
2021/06/14 01:30:25;;;;;;;9.90;6.40;;;21.50;53.60;;;;;;4959307;28;20121;-79
2021/06/14 01:32:51;;;;;;;8.95;6.68;;;21.50;53.40;;;;;;4959442;28;20094;-79
2021/06/14 01:35:23;;;;;;;11.50;6.95;;;21.50;53.30;;;;;;4946946;28;20036;-79
2021/06/14 01:37:54;;;;;;;11.23;7.10;;;21.40;53.20;;;;;;4947375;29;20078;-78
2021/06/14 01:40:22;;;;;;;10.75;6.72;;;21.40;53.20;;;;;;4959250;28;20109;-78
2021/06/14 01:42:53;;;;;;;8.57;6.65;;;21.30;53.10;;;;;;4959632;29;20026;-78
2021/06/14 01:45:21;;;;;;;10.55;6.50;;;21.30;53.20;;;;;;4959177;28;20106;-78
2021/06/14 01:47:48;;;;;;;10.60;6.50;;;21.30;53.30;;;;;;4950327;28;20087;-77
2021/06/14 01:50:14;;;;;;;8.13;6.85;;;21.30;53.40;;;;;;4955765;29;20040;-78
2021/06/14 01:52:40;;;;;;;11.13;5.70;;;21.20;53.10;;;;;;4959462;28;20456;-78
2021/06/14 01:55:09;;;;;;;10.95;6.90;;;21.20;53.10;;;;;;4959147;28;20025;-78
2021/06/14 01:57:35;;;;;;;9.88;6.47;;;21.20;53.30;;;;;;4959318;28;20497;-79
2021/06/14 02:00:01;;;;;;;11.23;7.15;;;21.10;53.40;;;;;;4958926;29;20483;-79
2021/06/14 02:02:30;;;;;;;9.70;7.25;;;21.10;53.80;;;;;;4959390;29;20098;-79
2021/06/14 02:04:58;;;;;;;12.50;7.78;;;21.00;53.90;;;;;;4959081;28;20030;-79
2021/06/14 02:07:24;;;;;;;12.68;7.32;;;21.00;53.70;;;;;;4949798;28;20019;-79
2021/06/14 02:09:51;;;;;;;10.13;7.50;;;21.00;53.40;;;;;;4955735;29;20041;-79
2021/06/14 02:12:17;;;;;;;10.07;7.55;;;21.00;53.60;;;;;;4959211;28;20019;-79
2021/06/14 02:14:44;;;;;;;12.07;7.97;;;20.90;53.80;;;;;;4958789;28;20031;-78
2021/06/14 02:17:14;;;;;;;10.18;7.32;;;20.90;53.60;;;;;;4959265;28;20035;-79
2021/06/14 02:19:42;;;;;;;10.50;7.45;;;20.90;53.60;;;;;;4959182;28;20118;-79
2021/06/14 02:22:10;;;;;;;10.90;7.82;;;20.80;53.70;;;;;;4950265;29;20028;-78
2021/06/14 02:24:36;;;;;;;10.63;7.20;;;20.80;53.60;;;;;;4957359;29;20027;-79
2021/06/14 02:27:03;;;;;;;9.93;7.03;;;20.80;53.60;;;;;;4959010;28;20026;-79
2021/06/14 02:29:29;;;;;;;12.15;7.30;;;20.70;54.20;;;;;;4958725;28;20027;-79
2021/06/14 02:31:55;;;;;;;11.82;7.55;;;20.70;55.10;;;;;;4958921;28;20154;-79
2021/06/14 02:34:21;;;;;;;9.77;7.13;;;20.70;56.60;;;;;;4958626;28;20027;-79
2021/06/14 02:36:47;;;;;;;10.18;6.90;;;20.60;54.90;;;;;;4961153;28;20034;-79
2021/06/14 02:39:20;;;;;;;9.77;6.97;;;20.70;54.80;;;;;;4956899;28;20122;-79
2021/06/14 02:41:46;;;;;;;14.93;9.02;;;20.60;55.10;;;;;;4956169;29;20075;-79
2021/06/14 02:44:12;;;;;;;11.23;7.82;;;20.50;58.50;;;;;;4956176;28;20483;-78
2021/06/14 02:46:40;;;;;;;12.00;8.30;;;20.50;57.50;;;;;;4956164;29;20043;-79
2021/06/14 02:49:08;;;;;;;12.88;8.50;;;20.50;59.00;;;;;;4950056;29;20114;-78
2021/06/14 02:51:38;;;;;;;12.48;8.00;;;20.50;60.00;;;;;;4962330;28;20386;-79
2021/06/14 02:54:08;;;;;;;13.02;8.75;;;20.50;59.00;;;;;;4962530;28;20019;-79
2021/06/14 02:56:39;;;;;;;13.50;8.43;;;20.50;60.20;;;;;;4962366;28;20106;-79
2021/06/14 02:59:17;;;;;;;14.52;8.80;;;20.40;60.20;;;;;;4962446;28;20483;-79
2021/06/14 03:01:48;;;;;;;15.38;9.48;;;20.40;59.20;;;;;;4962295;28;20050;-79
2021/06/14 03:04:15;;;;;;;13.45;9.27;;;20.30;62.10;;;;;;4962190;28;20063;-79
2021/06/14 03:06:44;;;;;;;12.23;9.23;;;20.30;61.40;;;;;;4956805;28;20019;-78
2021/06/14 03:09:10;;;;;;;11.80;8.85;;;20.30;60.50;;;;;;4953402;29;20023;-79
2021/06/14 03:11:40;;;;;;;12.30;9.32;;;20.30;60.70;;;;;;4961974;28;20079;-79
2021/06/14 03:14:06;;;;;;;13.13;8.25;;;20.20;58.40;;;;;;4962051;28;20031;-79
2021/06/14 03:16:33;;;;;;;12.15;8.05;;;20.20;57.10;;;;;;4961715;28;20115;-78
2021/06/14 03:19:02;;;;;;;10.50;8.02;;;20.20;56.30;;;;;;4950204;28;20032;-79
2021/06/14 03:21:30;;;;;;;12.20;8.05;;;20.20;56.00;;;;;;4958653;29;20118;-79
2021/06/14 03:23:56;;;;;;;14.60;9.05;;;20.20;55.70;;;;;;4954713;29;20023;-78
2021/06/14 03:26:27;;;;;;;10.55;7.85;;;20.20;55.60;;;;;;4961722;28;20031;-79
2021/06/14 03:28:55;;;;;;;9.87;7.10;;;20.20;55.50;;;;;;4961759;28;20027;-78
2021/06/14 03:31:21;;;;;;;11.50;7.45;;;20.10;55.30;;;;;;4961583;28;20028;-79
2021/06/14 03:33:49;;;;;;;10.30;7.53;;;20.10;55.20;;;;;;4961435;28;20024;-79
2021/06/14 03:36:18;;;;;;;10.85;7.50;;;20.10;55.40;;;;;;4961932;28;20023;-79
2021/06/14 03:38:48;;;;;;;11.23;7.38;;;20.00;55.30;;;;;;4961457;28;20023;-79
2021/06/14 03:41:15;;;;;;;11.40;7.55;;;20.00;55.70;;;;;;4961405;28;20054;-79
2021/06/14 03:43:41;;;;;;;14.05;8.60;;;20.00;56.90;;;;;;4961588;28;20027;-79
2021/06/14 03:46:07;;;;;;;15.18;9.18;;;20.00;60.90;;;;;;4961428;29;20089;-79
2021/06/14 03:48:33;;;;;;;13.93;9.35;;;19.80;62.10;;;;;;4960655;28;20047;-79
2021/06/14 03:50:59;;;;;;;13.32;7.50;;;19.80;59.90;;;;;;4961362;28;20043;-79
2021/06/14 03:53:31;;;;;;;14.00;9.23;;;19.80;58.90;;;;;;4961317;28;20023;-79
2021/06/14 03:56:02;;;;;;;13.73;9.30;;;19.70;59.90;;;;;;4961198;28;20028;-79
2021/06/14 03:58:28;;;;;;;13.82;9.48;;;19.70;61.90;;;;;;4961229;28;20102;-79
2021/06/14 04:00:54;;;;;;;13.00;8.43;;;19.70;59.40;;;;;;4961218;28;20074;-79
2021/06/14 04:03:22;;;;;;;11.82;8.30;;;19.70;58.20;;;;;;4959728;29;20513;-78
2021/06/14 04:05:47;;;;;;;12.13;8.68;;;19.70;57.30;;;;;;4961099;29;20035;-79
2021/06/14 04:08:13;;;;;;;12.48;8.07;;;19.70;56.80;;;;;;4948159;28;20034;-79
2021/06/14 04:10:39;;;;;;;11.32;8.05;;;19.70;56.40;;;;;;4961097;28;20019;-79
2021/06/14 04:13:09;;;;;;;12.32;7.97;;;19.70;56.70;;;;;;4960873;28;20032;-79
2021/06/14 04:15:35;;;;;;;11.60;8.25;;;19.70;57.20;;;;;;4960809;28;20063;-79
2021/06/14 04:18:01;;;;;;;11.77;7.72;;;19.60;56.80;;;;;;4960838;28;20015;-79
2021/06/14 04:20:27;;;;;;;15.35;8.30;;;19.60;56.30;;;;;;4960932;29;20420;-78
2021/06/14 04:22:53;;;;;;;12.02;8.02;;;19.60;56.90;;;;;;4950428;29;20034;-79
2021/06/14 04:25:19;;;;;;;12.43;8.43;;;19.60;56.10;;;;;;4960765;28;20019;-79
2021/06/14 04:27:46;;;;;;;13.23;8.73;;;19.60;56.80;;;;;;4960635;28;20042;-79
2021/06/14 04:30:13;;;;;;;15.02;7.38;;;19.50;56.20;;;;;;4949713;28;20062;-78
2021/06/14 04:32:39;;;;;;;12.45;7.50;;;19.50;56.00;;;;;;4958855;29;20023;-78
2021/06/14 04:35:06;;;;;;;13.57;7.85;;;19.50;55.80;;;;;;4960371;28;20034;-79
2021/06/14 04:37:32;;;;;;;12.10;8.18;;;19.50;55.90;;;;;;4960349;28;20483;-79
2021/06/14 04:39:59;;;;;;;10.50;7.90;;;19.50;55.70;;;;;;4960301;28;20102;-79
2021/06/14 04:42:27;;;;;;;12.10;8.50;;;19.40;55.70;;;;;;4960556;28;20027;-78
2021/06/14 04:44:53;;;;;;;13.68;8.50;;;19.40;56.00;;;;;;4960172;28;20509;-79
2021/06/14 04:47:19;;;;;;;12.35;8.25;;;19.40;55.80;;;;;;4960163;28;20023;-79
2021/06/14 04:49:45;;;;;;;13.13;8.35;;;19.40;55.80;;;;;;4960411;28;20083;-79
2021/06/14 04:52:11;;;;;;;15.38;9.60;;;19.40;57.30;;;;;;4960248;28;20518;-79
2021/06/14 04:54:37;;;;;;;17.75;8.95;;;19.40;59.50;;;;;;4960142;29;20098;-79
2021/06/14 04:57:03;;;;;;;17.80;9.90;;;19.40;58.10;;;;;;4960024;28;20031;-80
2021/06/14 04:59:29;;;;;;;16.20;10.00;;;19.40;59.20;;;;;;4959939;28;20023;-79
2021/06/14 05:01:54;;;;;;;13.50;9.32;;;19.30;61.00;;;;;;4960200;28;20082;-79
2021/06/14 05:04:20;;;;;;;13.55;9.68;;;19.30;59.90;;;;;;4959985;28;20045;-78
2021/06/14 05:06:46;;;;;;;20.08;10.18;;;19.30;60.50;;;;;;4955362;28;20027;-78
2021/06/14 05:09:12;;;;;;;13.75;9.15;;;19.30;61.20;;;;;;4951628;29;20028;-79
2021/06/14 05:11:38;;;;;;;16.20;9.90;;;19.30;60.80;;;;;;4959716;28;20102;-75
2021/06/14 05:14:04;;;;;;;16.17;10.23;;;19.30;60.70;;;;;;4959721;29;20028;-78
2021/06/14 05:16:30;;;;;;;13.65;9.43;;;19.30;59.70;;;;;;4959665;28;20062;-78
2021/06/14 05:18:56;;;;;;;12.85;8.88;;;19.30;58.80;;;;;;4959566;29;20019;-78
2021/06/14 05:21:22;;;;;;;14.85;9.70;;;19.30;59.20;;;;;;4958211;28;20498;-78
2021/06/14 05:23:48;;;;;;;18.13;10.60;;;19.30;59.60;;;;;;4951839;29;20023;-78
2021/06/14 05:26:13;;;;;;;15.88;9.02;;;19.30;58.10;;;;;;4959791;28;20109;-72
2021/06/14 05:28:39;;;;;;;13.65;9.25;;;19.40;57.80;;;;;;4959720;28;20023;-74
2021/06/14 05:31:05;;;;;;;14.55;9.82;;;19.40;57.80;;;;;;4959184;29;20049;-71
2021/06/14 05:33:31;;;;;;;16.80;10.30;;;19.40;58.40;;;;;;4959566;28;20514;-69
2021/06/14 05:35:57;;;;;;;14.18;9.32;;;19.40;57.70;;;;;;4959443;28;20474;-70
2021/06/14 05:38:22;;;;;;;14.00;8.75;;;19.40;58.20;;;;;;4959737;28;20023;-70
2021/06/14 05:40:48;;;;;;;13.98;9.52;;;19.40;58.90;;;;;;4959170;28;20055;-70
2021/06/14 05:43:14;;;;;;;15.00;10.05;;;19.40;58.00;;;;;;4959638;28;20079;-75
2021/06/14 05:45:40;;;;;;;15.27;10.43;;;19.40;57.50;;;;;;4959135;28;20027;-70
2021/06/14 05:48:07;;;;;;;12.80;9.15;;;19.50;58.00;;;;;;4958106;29;20514;-72
2021/06/14 05:50:33;;;;;;;13.18;10.05;;;19.50;57.50;;;;;;4959158;28;20035;-71
2021/06/14 05:52:59;;;;;;;13.98;8.82;;;19.50;57.40;;;;;;4947281;28;20024;-72
2021/06/14 05:55:24;;;;;;;14.75;10.27;;;19.50;57.50;;;;;;4958471;29;20478;-72
2021/06/14 05:57:50;;;;;;;16.45;10.10;;;19.50;58.10;;;;;;4954240;28;20539;-75
2021/06/14 06:00:16;;;;;;;17.23;11.18;;;19.60;58.40;;;;;;4945097;29;20510;-73
2021/06/14 06:02:42;;;;;;;13.80;9.55;;;19.60;58.20;;;;;;4947412;29;20400;-73
2021/06/14 06:05:09;;;;;;;18.23;11.13;;;19.60;59.30;;;;;;4950253;28;20050;-73
2021/06/14 06:07:35;;;;;;;15.23;9.52;;;19.70;59.10;;;;;;4947243;28;20028;-74
2021/06/14 06:10:02;;;;;;;17.10;10.52;;;19.70;58.40;;;;;;4956517;28;20034;-74
2021/06/14 06:12:28;;;;;;;14.00;9.35;;;19.70;59.00;;;;;;4962003;28;20426;-74
2021/06/14 06:14:54;;;;;;;13.90;9.55;;;19.70;59.20;;;;;;4949649;28;20029;-74
2021/06/14 06:17:20;;;;;;;15.90;10.32;;;19.80;59.00;;;;;;4961752;29;20027;-75
2021/06/14 06:19:46;;;;;;;15.18;10.32;;;19.80;58.80;;;;;;4962947;28;20028;-75
2021/06/14 06:22:13;;;;;;;17.00;10.80;;;19.80;58.70;;;;;;4954892;28;20395;-73
2021/06/14 06:24:39;;;;;;;13.20;9.45;;;19.90;58.90;;;;;;4961594;29;20042;-74
2021/06/14 06:27:05;;;;;;;17.50;10.27;;;19.90;58.90;;;;;;4958984;28;20019;-74
2021/06/14 06:29:31;;;;;;;15.30;10.68;;;19.90;59.30;;;;;;4964181;28;20038;-75
2021/06/14 06:31:57;;;;;;;18.77;10.65;;;19.90;59.50;;;;;;4962559;29;20390;-75
2021/06/14 06:34:23;;;;;;;13.57;9.75;;;20.00;59.50;;;;;;4962362;28;20031;-76
2021/06/14 06:36:49;;;;;;;18.58;10.48;;;20.10;62.20;;;;;;4962695;28;20019;-75
2021/06/14 06:39:15;;;;;;;19.27;10.13;;;20.10;60.70;;;;;;4962478;28;20035;-75
2021/06/14 06:41:41;;;;;;;17.65;12.40;;;20.10;62.30;;;;;;4962376;28;20151;-75
2021/06/14 06:44:09;;;;;;;17.92;11.05;;;20.20;62.70;;;;;;4962309;28;20032;-75
2021/06/14 06:46:35;;;;;;;18.58;11.60;;;20.30;61.30;;;;;;4961495;29;20167;-74
2021/06/14 06:49:01;;;;;;;16.10;11.50;;;20.50;61.10;;;;;;4949683;29;20020;-75
2021/06/14 06:51:27;;;;;;;19.02;12.55;;;20.60;61.80;;;;;;4962340;28;20031;-75
2021/06/14 06:54:10;;;;;;;18.95;11.38;;;20.80;61.90;;;;;;4962433;28;20027;-75
2021/06/14 06:56:44;;;;;;;18.02;11.63;;;21.10;63.20;;;;;;4962293;28;20060;-75
2021/06/14 06:59:12;;;;;;;21.30;11.65;;;21.60;63.70;;;;;;4962018;28;20027;-75
2021/06/14 07:01:39;;;;;;;20.73;10.95;;;22.00;64.30;;;;;;4962202;28;20023;-75
2021/06/14 07:04:06;;;;;;;21.25;12.18;;;22.50;64.50;;;;;;4962327;28;20086;-76
2021/06/14 07:06:32;;;;;;;14.73;9.57;;;23.00;64.70;;;;;;4946660;28;20028;-78
2021/06/14 07:08:58;;;;;;;34.47;24.35;;;23.60;64.60;;;;;;4957231;28;20027;-77
2021/06/14 07:11:26;;;;;;;16.95;10.75;;;24.20;63.90;;;;;;4971583;28;20035;-75
2021/06/14 07:13:52;;;;;;;16.75;9.13;;;24.70;64.40;;;;;;4954739;28;20043;-75
2021/06/14 07:16:18;;;;;;;14.52;8.40;;;25.30;63.80;;;;;;4961612;29;20023;-76
2021/06/14 07:18:44;;;;;;;15.50;8.98;;;25.80;62.50;;;;;;4959482;28;20501;-75
2021/06/14 07:21:10;;;;;;;13.75;7.85;;;26.30;63.40;;;;;;4960207;28;20053;-75
2021/06/14 07:23:36;;;;;;;11.27;6.75;;;26.90;62.20;;;;;;4950658;28;20031;-74
2021/06/14 07:26:03;;;;;;;10.40;5.85;;;27.30;59.90;;;;;;4961246;29;20023;-74
2021/06/14 07:28:29;;;;;;;10.65;6.10;;;27.80;60.00;;;;;;4960032;28;20039;-75
2021/06/14 07:30:54;;;;;;;11.80;6.78;;;28.20;58.00;;;;;;4959760;29;20031;-75
2021/06/14 07:33:21;;;;;;;11.82;5.90;;;28.60;57.50;;;;;;4961304;29;20023;-76
2021/06/14 07:35:47;;;;;;;10.90;6.15;;;28.90;57.20;;;;;;4955436;28;20055;-74
2021/06/14 07:38:14;;;;;;;10.45;6.65;;;29.30;56.80;;;;;;4961459;28;20031;-74
2021/06/14 07:40:40;;;;;;;7.15;5.30;;;29.60;55.60;;;;;;4961004;28;20070;-74
2021/06/14 07:43:11;;;;;;;10.23;5.05;;;29.90;54.40;;;;;;4961326;28;20545;-74
2021/06/14 07:45:38;;;;;;;10.07;5.50;;;30.20;54.00;;;;;;4960987;28;20042;-74
2021/06/14 07:48:04;;;;;;;8.55;5.00;;;30.60;54.90;;;;;;4965105;28;20031;-74
2021/06/14 07:50:30;;;;;;;9.13;5.57;;;30.90;54.50;;;;;;4958899;29;20529;-74
2021/06/14 07:52:56;;;;;;;7.93;4.85;;;31.20;53.60;;;;;;4961046;28;20449;-74
2021/06/14 07:55:23;;;;;;;8.75;4.80;;;31.50;54.40;;;;;;4959776;29;20047;-74
2021/06/14 07:57:49;;;;;;;6.40;4.47;;;31.80;53.60;;;;;;4960968;28;20058;-74
2021/06/14 08:00:15;;;;;;;7.00;4.05;;;32.00;51.30;;;;;;4960871;29;20019;-74
2021/06/14 08:02:41;;;;;;;9.10;4.07;;;32.30;51.50;;;;;;4960941;28;20387;-71
2021/06/14 08:05:11;;;;;;;7.90;4.05;;;32.60;52.90;;;;;;4960727;28;20030;-71
2021/06/14 08:07:38;;;;;;;6.85;4.03;;;32.90;53.20;;;;;;4950916;28;20020;-71
2021/06/14 08:10:07;;;;;;;7.32;4.05;;;33.10;51.90;;;;;;4960668;28;20103;-71
2021/06/14 08:12:36;;;;;;;7.60;3.90;;;33.40;51.60;;;;;;4960793;28;20071;-71
2021/06/14 08:15:02;;;;;;;7.55;4.10;;;33.70;51.00;;;;;;4955687;28;20027;-71
2021/06/14 08:17:29;;;;;;;7.07;3.70;;;33.90;51.60;;;;;;4959185;28;20031;-71
2021/06/14 08:20:09;;;;;;;8.23;3.78;;;34.20;51.80;;;;;;4959385;29;20442;-71
2021/06/14 08:25:04;;;;;;;7.50;3.65;;;34.70;49.30;;;;;;4960781;28;20026;-71
2021/06/14 08:27:34;;;;;;;5.80;3.72;;;34.90;49.00;;;;;;4959012;28;20110;-71
2021/06/14 08:30:01;;;;;;;7.63;3.50;;;35.20;49.50;;;;;;4960292;28;20050;-71
2021/06/14 08:32:27;;;;;;;7.10;3.63;;;35.50;50.20;;;;;;4957199;28;20030;-71
2021/06/14 08:34:53;;;;;;;6.72;3.42;;;35.70;47.60;;;;;;4955010;28;20403;-71
2021/06/14 08:37:19;;;;;;;6.40;3.58;;;35.90;47.90;;;;;;4956398;29;20103;-71
2021/06/14 08:39:44;;;;;;;8.10;3.35;;;36.10;47.00;;;;;;4950284;28;20031;-71
2021/06/14 08:42:10;;;;;;;7.22;3.35;;;36.40;45.80;;;;;;4958944;28;20043;-71
2021/06/14 08:44:37;;;;;;;6.32;3.00;;;36.60;45.40;;;;;;4959729;28;20453;-71
2021/06/14 08:47:05;;;;;;;5.20;2.92;;;36.70;45.60;;;;;;4951981;28;20033;-71
2021/06/14 08:49:31;;;;;;;5.85;3.00;;;37.00;47.20;;;;;;4958580;29;20034;-71
2021/06/14 08:51:59;;;;;;;6.38;3.25;;;37.30;47.40;;;;;;4959124;28;20043;-71
2021/06/14 08:54:25;;;;;;;7.53;2.72;;;37.50;44.40;;;;;;4949946;28;20019;-71
2021/06/14 08:56:51;;;;;;;5.20;2.75;;;37.60;41.60;;;;;;4958795;28;20478;-71
2021/06/14 08:59:17;;;;;;;5.57;2.58;;;37.70;43.60;;;;;;4963145;28;20485;-70
2021/06/14 09:01:43;;;;;;;5.35;2.50;;;37.90;44.50;;;;;;4952019;28;20031;-70
2021/06/14 09:04:08;;;;;;;6.30;3.10;;;38.00;42.30;;;;;;4950764;29;20034;-70
2021/06/14 09:06:34;;;;;;;5.88;2.85;;;38.20;41.20;;;;;;4957055;29;20042;-70
2021/06/14 09:09:03;;;;;;;5.57;3.03;;;38.40;42.50;;;;;;4958867;28;20449;-70
2021/06/14 09:11:32;;;;;;;17.33;15.73;;;38.60;42.70;;;;;;4957584;28;20046;-74
2021/06/14 09:13:59;;;;;;;5.60;4.18;;;38.80;41.60;;;;;;4958599;28;20038;-73
2021/06/14 09:16:30;;;;;;;5.25;2.78;;;39.00;44.80;;;;;;4959657;28;20106;-73
2021/06/14 09:18:56;;;;;;;;;;;39.40;43.50;;;;;;4962447;28;20053;-73
2021/06/14 09:21:27;;;;;;;5.88;3.00;;;39.70;44.10;;;;;;4957116;28;20368;-73
2021/06/14 09:23:59;;;;;;;7.43;3.00;;;40.00;39.90;;;;;;4949386;28;20058;-73
2021/06/14 09:26:26;;;;;;;6.53;3.25;;;40.20;41.50;;;;;;4950594;29;20399;-74
2021/06/14 09:28:57;;;;;;;6.65;2.83;;;40.40;41.10;;;;;;4957797;29;20038;-73
2021/06/14 09:31:26;;;;;;;6.60;3.25;;;40.60;41.40;;;;;;4959015;28;20046;-73
2021/06/14 09:33:51;;;;;;;6.53;3.22;;;40.80;41.00;;;;;;4957947;29;20561;-73
2021/06/14 09:36:21;;;;;;;6.05;2.88;;;40.80;40.40;;;;;;4957966;29;20031;-72
2021/06/14 09:38:47;;;;;;;7.43;2.92;;;40.90;41.80;;;;;;4958610;28;20090;-72
2021/06/14 09:41:16;;;;;;;4.65;2.85;;;41.10;42.20;;;;;;4956993;28;20043;-71
2021/06/14 09:43:48;;;;;;;5.28;2.92;;;41.30;41.30;;;;;;4959302;28;20027;-73
2021/06/14 09:46:21;;;;;;;6.65;2.72;;;41.50;40.70;;;;;;4956699;28;20038;-72
2021/06/14 09:48:48;;;;;;;5.05;3.08;;;41.70;41.50;;;;;;4958886;28;20023;-73
2021/06/14 09:51:14;;;;;;;4.82;3.33;;;41.90;40.70;;;;;;4958784;28;20067;-72
2021/06/14 09:53:51;;;;;;;5.32;3.08;;;42.10;38.00;;;;;;4957211;29;20031;-72
2021/06/14 09:56:35;;;;;;;4.50;2.90;;;42.20;39.30;;;;;;4957872;29;20114;-71
2021/06/14 09:59:02;;;;;;;5.68;2.97;;;42.50;39.60;;;;;;4957693;28;20090;-72
2021/06/14 10:01:37;;;;;;;5.13;3.13;;;42.80;39.80;;;;;;4957080;29;20039;-71
2021/06/14 10:04:06;;;;;;;6.43;3.20;;;43.10;40.40;;;;;;4958743;28;20019;-71
2021/06/14 10:06:38;;;;;;;5.45;3.20;;;43.30;37.40;;;;;;4958012;29;20573;-71
2021/06/14 10:09:10;;;;;;;5.75;3.53;;;43.50;37.20;;;;;;4958785;28;20025;-71
2021/06/14 10:11:38;;;;;;;5.55;3.47;;;43.60;34.70;;;;;;4958433;28;20030;-71
2021/06/14 10:14:20;;;;;;;7.20;3.28;;;43.60;37.20;;;;;;4958851;28;20026;-70
2021/06/14 10:16:48;;;;;;;6.55;3.40;;;43.80;38.20;;;;;;4947523;29;20027;-71
2021/06/14 10:19:16;;;;;;;4.97;3.08;;;44.00;37.60;;;;;;4958401;28;20024;-72
2021/06/14 10:21:45;;;;;;;5.60;3.17;;;44.20;37.70;;;;;;4958755;28;20050;-71
2021/06/14 10:24:14;;;;;;;4.95;3.55;;;44.40;37.20;;;;;;4958984;29;20055;-72
2021/06/14 10:26:45;;;;;;;6.82;3.53;;;44.60;37.00;;;;;;4958601;28;20047;-71
2021/06/14 10:29:13;;;;;;;;;;;44.80;37.50;;;;;;4958236;28;20074;-75
2021/06/14 10:31:41;;;;;;;7.30;3.70;;;45.00;35.70;;;;;;4958248;28;19914;-73
2021/06/14 10:34:08;;;;;;;6.53;3.72;;;45.10;34.90;;;;;;4957767;28;20054;-72
2021/06/14 10:36:34;;;;;;;5.35;3.58;;;45.20;35.90;;;;;;4957344;29;20032;-72
2021/06/14 10:39:01;;;;;;;6.88;3.80;;;45.30;35.10;;;;;;4958327;28;20038;-72
2021/06/14 10:41:28;;;;;;;7.70;3.63;;;45.40;35.70;;;;;;4957642;28;20047;-72
2021/06/14 10:43:54;;;;;;;5.57;3.20;;;45.50;34.60;;;;;;4957299;28;20035;-72
2021/06/14 10:46:22;;;;;;;6.45;3.53;;;45.60;35.70;;;;;;4958371;28;20034;-72
2021/06/14 10:48:57;;;;;;;8.63;3.83;;;45.70;35.90;;;;;;4956884;28;20110;-72
2021/06/14 10:51:24;;;;;;;6.70;3.67;;;45.70;34.10;;;;;;4958911;28;20038;-72
2021/06/14 10:53:51;;;;;;;4.82;3.25;;;45.70;33.60;;;;;;4958596;28;20086;-72
2021/06/14 10:56:24;;;;;;;6.13;3.40;;;45.70;35.50;;;;;;4958748;28;20023;-72
2021/06/14 10:58:57;;;;;;;7.05;3.85;;;45.80;34.90;;;;;;4960842;28;20059;-73
2021/06/14 11:01:34;;;;;;;7.72;4.30;;;45.80;35.80;;;;;;4961908;28;20027;-71
2021/06/14 11:04:01;;;;;;;7.70;4.72;;;45.90;36.60;;;;;;4960891;29;20122;-72
2021/06/14 11:06:29;;;;;;;5.97;3.80;;;46.00;35.40;;;;;;4961791;28;20038;-73
2021/06/14 11:09:08;;;;;;;7.05;4.40;;;46.10;36.30;;;;;;4961188;28;20027;-72
2021/06/14 11:11:48;;;;;;;5.80;3.75;;;46.10;36.40;;;;;;4961677;28;20099;-74
2021/06/14 11:14:26;;;;;;;6.25;3.85;;;46.10;35.40;;;;;;4961697;28;20034;-74
2021/06/14 11:16:52;;;;;;;6.63;3.58;;;46.20;34.20;;;;;;4961915;28;20374;-74
2021/06/14 11:19:18;;;;;;;5.05;3.55;;;46.20;35.10;;;;;;4962228;28;20150;-73
2021/06/14 11:21:53;;;;;;;6.78;3.50;;;46.10;33.00;;;;;;4960261;29;20446;-73
2021/06/14 11:24:19;;;;;;;6.32;3.58;;;46.00;33.80;;;;;;4960489;29;20034;-73
2021/06/14 11:26:55;;;;;;;6.00;3.58;;;46.10;34.30;;;;;;4960488;29;20375;-73
2021/06/14 11:29:21;;;;;;;5.75;3.70;;;46.00;33.60;;;;;;4956088;29;20508;-73
2021/06/14 11:32:02;;;;;;;5.68;3.88;;;46.10;32.90;;;;;;4945665;29;20024;-74
2021/06/14 11:34:41;;;;;;;5.50;3.78;;;46.00;33.20;;;;;;4951449;29;20446;-73
2021/06/14 11:37:07;;;;;;;4.82;3.63;;;45.90;33.60;;;;;;4967801;28;20050;-73
2021/06/14 11:39:34;;;;;;;5.25;3.58;;;45.80;33.90;;;;;;4957061;28;20023;-73
2021/06/14 11:42:18;;;;;;;7.03;3.72;;;45.60;32.50;;;;;;4961222;28;20039;-73
2021/06/14 11:44:53;;;;;;;6.95;4.05;;;45.20;32.20;;;;;;4955415;29;20043;-73
2021/06/14 11:47:27;;;;;;;7.18;3.88;;;44.70;29.80;;;;;;4953370;29;20075;-73
2021/06/14 11:49:58;;;;;;;7.32;4.07;;;44.20;32.20;;;;;;4960790;28;20066;-72
2021/06/14 11:52:36;;;;;;;6.93;4.40;;;43.70;32.80;;;;;;4955057;28;20023;-72
2021/06/14 11:55:06;;;;;;;5.15;3.42;;;43.30;33.40;;;;;;4961138;28;20035;-72
2021/06/14 11:57:45;;;;;;;5.28;3.88;;;43.10;33.20;;;;;;4961306;28;20023;-72
2021/06/14 12:00:44;;;;;;;9.23;4.50;;;42.80;34.50;;;;;;4960457;28;20039;-74
2021/06/14 12:03:21;;;;;;;7.10;5.07;;;42.40;33.70;;;;;;4958966;29;20046;-73
2021/06/14 12:05:49;;;;;;;7.90;4.30;;;41.90;35.20;;;;;;4955633;29;20478;-73
2021/06/14 12:08:21;;;;;;;9.32;7.82;;;41.50;34.30;;;;;;4960284;28;20023;-73
2021/06/14 12:10:49;;;;;;;6.57;4.28;;;41.10;34.30;;;;;;4959322;28;20091;-73
2021/06/14 12:13:19;;;;;;;7.15;4.78;;;40.60;33.50;;;;;;4960205;28;20046;-73
2021/06/14 12:15:50;;;;;;;7.20;4.25;;;40.10;33.60;;;;;;4961050;28;20067;-73
2021/06/14 12:18:18;;;;;;;7.68;4.13;;;39.60;34.60;;;;;;4960794;28;20101;-74
2021/06/14 12:20:49;;;;;;;9.63;4.43;;;39.20;35.30;;;;;;4960808;28;20042;-74
2021/06/14 12:23:16;;;;;;;6.45;4.40;;;38.80;35.30;;;;;;4972672;28;20430;-74
2021/06/14 12:25:47;;;;;;;7.43;4.53;;;38.40;35.90;;;;;;4960610;28;20398;-74
2021/06/14 12:28:19;;;;;;;5.38;4.20;;;38.10;36.00;;;;;;4959619;29;20051;-74
2021/06/14 12:30:47;;;;;;;6.30;4.50;;;37.90;36.50;;;;;;4960370;28;20040;-73
2021/06/14 12:33:24;;;;;;;7.93;4.53;;;37.60;37.00;;;;;;4956063;28;20095;-73
2021/06/14 12:35:55;;;;;;;7.13;4.68;;;37.40;36.20;;;;;;4941938;28;20050;-73
2021/06/14 12:38:21;;;;;;;7.15;4.90;;;37.20;36.00;;;;;;4951704;29;20093;-73
2021/06/14 12:40:47;;;;;;;7.35;4.50;;;36.80;36.70;;;;;;4950251;29;20047;-73
2021/06/14 12:43:13;;;;;;;9.90;5.22;;;36.70;37.80;;;;;;4950544;29;20030;-74
2021/06/14 12:45:43;;;;;;;6.95;5.28;;;36.50;36.90;;;;;;4950102;29;20028;-74
2021/06/14 12:48:12;;;;;;;7.63;5.05;;;36.40;36.80;;;;;;4953977;29;20430;-73